createdAt,value
2023-01-15T00:03:01.022Z,99163.13
2023-01-15T00:08:02.613Z,99160.84
2023-01-15T00:13:04.046Z,99123.84
2023-01-15T00:18:05.535Z,99120.47
2023-01-15T00:23:26.919Z,99113.47
2023-01-15T00:28:28.409Z,99103.00
2023-01-15T00:33:29.980Z,99114.66
2023-01-15T00:38:31.394Z,99125.00
2023-01-15T00:43:32.804Z,99112.22
2023-01-15T00:48:35.307Z,99112.94
2023-01-15T00:53:36.774Z,99090.88
2023-01-15T00:58:38.218Z,99080.16
2023-01-15T01:03:39.869Z,99093.34
2023-01-15T01:08:41.474Z,99061.81
2023-01-15T01:13:43.598Z,99063.47
2023-01-15T01:18:45.005Z,99055.03
2023-01-15T01:23:46.495Z,99057.88
2023-01-15T01:28:52.116Z,99044.59
2023-01-15T01:33:56.005Z,99046.34
2023-01-15T01:38:57.597Z,99042.97
2023-01-15T01:44:04.045Z,99021.53
2023-01-15T01:49:12.867Z,99015.03
2023-01-15T01:54:19.247Z,99011.81
2023-01-15T01:59:22.434Z,99006.13
2023-01-15T02:04:27.688Z,99002.44
2023-01-15T02:09:29.104Z,98979.69
2023-01-15T02:14:39.075Z,98966.88
2023-01-15T02:20:03.218Z,98976.69
2023-01-15T02:25:13.461Z,98972.03
2023-01-15T02:30:29.147Z,98966.72
2023-01-15T02:35:44.547Z,98958.72
2023-01-15T02:40:48.260Z,98947.75
2023-01-15T02:45:52.754Z,98946.59
2023-01-15T02:51:01.624Z,98961.59
2023-01-15T02:56:07.740Z,98941.53
2023-01-15T03:01:18.174Z,98940.44
2023-01-15T03:06:27.834Z,98926.00
2023-01-15T03:11:30.980Z,98930.19
2023-01-15T03:16:44.938Z,98896.78
2023-01-15T03:21:56.065Z,98883.59
2023-01-15T03:26:57.748Z,98870.47
2023-01-15T03:32:00.689Z,98867.06
2023-01-15T03:37:02.775Z,98890.38
2023-01-15T03:42:22.819Z,98904.28
2023-01-15T03:47:29.953Z,98893.25
2023-01-15T03:52:41.649Z,98880.22
2023-01-15T03:57:54.894Z,98884.72
2023-01-15T04:02:58.415Z,98876.88
2023-01-15T04:08:01.204Z,98888.19
2023-01-15T04:13:02.655Z,98864.38
2023-01-15T04:18:04.176Z,98865.78
2023-01-15T04:23:05.601Z,98866.53
2023-01-15T04:28:08.459Z,98852.38
2023-01-15T04:33:11.664Z,98852.59
2023-01-15T04:38:13.125Z,98845.03
2023-01-15T04:43:33.066Z,98835.50
2023-01-15T04:48:34.496Z,98830.25
2023-01-15T04:53:36.963Z,98823.97
2023-01-15T04:58:38.549Z,98806.72
2023-01-15T05:03:40.113Z,98817.28
2023-01-15T05:08:42.139Z,98797.91
2023-01-15T05:13:43.633Z,98805.69
2023-01-15T05:18:46.874Z,98801.44
2023-01-15T05:23:49.877Z,98780.78
2023-01-15T05:28:54.676Z,98795.34
2023-01-15T05:33:57.282Z,98797.50
2023-01-15T05:39:02.287Z,98800.91
2023-01-15T05:44:12.187Z,98784.91
2023-01-15T05:49:16.845Z,98788.19
2023-01-15T05:54:22.244Z,98785.31
2023-01-15T05:59:26.006Z,98796.78
2023-01-15T06:04:27.655Z,98806.84
2023-01-15T06:09:29.704Z,98803.44
2023-01-15T06:14:31.288Z,98799.59
2023-01-15T06:19:33.351Z,98807.13
2023-01-15T06:24:34.785Z,98814.19
2023-01-15T06:29:36.191Z,98815.63
2023-01-15T06:34:37.648Z,98809.53
2023-01-15T06:39:39.130Z,98791.41
2023-01-15T06:45:00.820Z,98782.22
2023-01-15T06:50:02.581Z,98783.53
2023-01-15T06:55:04.306Z,98791.81
2023-01-15T07:00:10.340Z,98782.56
2023-01-15T07:05:11.864Z,98779.69
2023-01-15T07:10:13.308Z,98779.28
2023-01-15T07:15:14.881Z,98786.63
2023-01-15T07:20:18.780Z,98777.38
2023-01-15T07:25:20.210Z,98768.94
2023-01-15T07:30:21.637Z,98783.16
2023-01-15T07:35:23.042Z,98788.25
2023-01-15T07:40:24.498Z,98781.47
2023-01-15T07:45:44.734Z,98773.53
2023-01-15T07:50:46.465Z,98780.34
2023-01-15T07:55:47.928Z,98778.94
2023-01-15T08:00:49.376Z,98776.78
2023-01-15T08:05:50.876Z,98770.16
2023-01-15T08:11:10.800Z,98761.91
2023-01-15T08:16:12.338Z,98763.03
2023-01-15T08:21:15.565Z,98757.69
2023-01-15T08:26:16.995Z,98761.34
2023-01-15T08:31:18.499Z,98755.00
2023-01-15T08:36:19.995Z,98724.56
2023-01-15T08:41:21.426Z,98739.56
2023-01-15T08:46:22.994Z,98738.72
2023-01-15T08:51:24.415Z,98746.06
2023-01-15T08:56:25.977Z,98739.56
2023-01-15T09:01:27.555Z,98752.31
2023-01-15T09:06:29.042Z,98745.09
2023-01-15T09:11:30.579Z,98740.56
2023-01-15T09:16:32.784Z,98740.97
2023-01-15T09:21:34.724Z,98713.81
2023-01-15T09:26:38.426Z,98712.66
2023-01-15T09:31:39.881Z,98729.09
2023-01-15T09:36:41.568Z,98715.63
2023-01-15T09:42:05.393Z,98733.19
2023-01-15T09:47:20.978Z,98719.44
2023-01-15T09:52:50.244Z,98714.50
2023-01-15T09:57:54.095Z,98722.41
2023-01-15T10:03:04.226Z,98713.63
2023-01-15T10:08:21.306Z,98706.84
2023-01-15T10:13:41.615Z,98702.72
2023-01-15T10:18:43.563Z,98700.88
2023-01-15T10:24:10.716Z,98699.63
2023-01-15T10:29:30.475Z,98680.41
2023-01-15T10:34:57.182Z,98689.88
2023-01-15T10:40:23.151Z,98694.56
2023-01-15T10:45:27.687Z,98682.94
2023-01-15T10:50:29.135Z,98688.59
2023-01-15T10:55:38.635Z,98691.97
2023-01-15T11:00:40.785Z,98663.66
2023-01-15T11:05:45.674Z,98666.44
2023-01-15T11:10:47.107Z,98658.25
2023-01-15T11:16:08.944Z,98661.34
2023-01-15T11:21:17.157Z,98662.69
2023-01-15T11:26:22.798Z,98651.22
2023-01-15T11:31:35.887Z,98667.47
2023-01-15T11:36:37.352Z,98684.81
2023-01-15T11:41:57.224Z,98674.59
2023-01-15T11:47:17.330Z,98695.91
2023-01-15T11:52:26.179Z,98696.25
2023-01-15T11:57:32.745Z,98700.50
2023-01-15T12:02:50.531Z,98707.16
2023-01-15T12:07:55.508Z,98716.84
2023-01-15T12:13:20.229Z,98719.84
2023-01-15T12:18:44.469Z,98716.03
2023-01-15T12:24:13.517Z,98723.38
2023-01-15T12:29:17.734Z,98733.31
2023-01-15T12:34:41.219Z,98743.78
2023-01-15T12:39:51.939Z,98754.78
2023-01-15T12:45:04.145Z,98769.47
2023-01-15T12:50:36.824Z,98801.06
2023-01-15T12:55:45.032Z,98799.88
2023-01-15T13:00:49.259Z,98806.09
2023-01-15T13:05:56.405Z,98814.09
2023-01-15T13:10:58.050Z,98830.97
2023-01-15T13:16:14.543Z,98838.94
2023-01-15T13:21:18.312Z,98846.22
2023-01-15T13:26:53.430Z,98851.31
2023-01-15T13:32:03.563Z,98867.16
2023-01-15T13:37:22.170Z,98844.09
2023-01-15T13:42:32.426Z,98857.59
2023-01-15T13:47:38.156Z,98866.13
2023-01-15T13:52:39.690Z,98872.06
2023-01-15T13:57:42.962Z,98893.59
2023-01-15T14:02:52.522Z,98897.66
2023-01-15T14:07:54.151Z,98932.47
2023-01-15T14:13:07.958Z,98932.66
2023-01-15T14:18:20.589Z,98911.78
2023-01-15T14:23:57.603Z,98934.00
2023-01-15T14:29:02.807Z,98960.34
2023-01-15T14:34:25.554Z,98933.59
2023-01-15T14:39:45.680Z,98964.34
2023-01-15T14:44:47.635Z,98977.34
2023-01-15T14:50:37.848Z,98942.13
2023-01-15T14:55:49.620Z,98942.81
2023-01-15T15:00:55.783Z,98948.91
2023-01-15T15:05:57.588Z,98936.94
2023-01-15T15:11:00.845Z,98929.09
2023-01-15T15:16:18.984Z,98923.00
2023-01-15T15:21:30.256Z,98932.22
2023-01-15T15:26:34.551Z,98929.25
2023-01-15T15:31:45.313Z,98950.81
2023-01-15T15:36:47.004Z,98953.69
2023-01-15T15:42:09.764Z,98964.78
2023-01-15T15:47:38.795Z,98978.00
2023-01-15T15:52:44.540Z,99007.88
2023-01-15T15:57:51.021Z,99028.47
2023-01-15T16:02:52.624Z,99026.78
2023-01-15T16:07:55.511Z,99021.88
2023-01-15T16:13:01.771Z,99021.38
2023-01-15T16:18:05.244Z,99026.00
2023-01-15T16:23:21.499Z,99030.78
2023-01-15T16:28:25.994Z,99042.75
2023-01-15T16:33:28.076Z,99047.00
2023-01-15T16:38:29.560Z,99044.31
2023-01-15T16:43:31.426Z,99053.22
2023-01-15T16:48:41.609Z,99040.41
2023-01-15T16:53:43.020Z,99051.63
2023-01-15T16:58:44.642Z,99064.44
2023-01-15T17:03:46.195Z,99071.25
2023-01-15T17:08:49.239Z,99059.22
2023-01-15T17:13:51.478Z,99064.09
2023-01-15T17:18:53.045Z,99057.28
2023-01-15T17:23:55.866Z,99066.75
2023-01-15T17:28:57.318Z,99074.34
2023-01-15T17:34:00.689Z,99089.94
2023-01-15T17:39:02.509Z,99094.06
2023-01-15T17:44:04.101Z,99099.91
2023-01-15T17:49:05.533Z,99113.31
2023-01-15T17:54:06.973Z,99124.78
2023-01-15T17:59:30.469Z,99127.22
2023-01-15T18:05:00.177Z,99136.75
2023-01-15T18:10:01.885Z,99140.28
2023-01-15T18:15:03.526Z,99135.25
2023-01-15T18:20:05.685Z,99132.22
2023-01-15T18:25:10.573Z,99139.41
2023-01-15T18:30:13.968Z,99153.31
2023-01-15T18:35:15.943Z,99157.22
2023-01-15T18:40:17.503Z,99163.81
2023-01-15T18:45:37.297Z,99155.25
2023-01-15T18:50:38.740Z,99162.06
2023-01-15T18:55:40.181Z,99167.56
2023-01-15T19:00:41.671Z,99166.22
2023-01-15T19:05:43.106Z,99171.34
2023-01-15T19:10:44.519Z,99180.63
2023-01-15T19:16:04.786Z,99186.50
2023-01-15T19:21:07.894Z,99201.84
2023-01-15T19:26:09.513Z,99197.47
2023-01-15T19:31:29.647Z,99187.44
2023-01-15T19:36:31.091Z,99197.34
2023-01-15T19:41:51.393Z,99195.50
2023-01-15T19:47:11.500Z,99197.94
2023-01-15T19:52:31.396Z,99208.44
2023-01-15T19:57:32.838Z,99221.13
2023-01-15T20:02:34.816Z,99227.34
2023-01-15T20:07:36.419Z,99232.72
2023-01-15T20:12:56.226Z,99225.84
2023-01-15T20:17:58.172Z,99237.19
2023-01-15T20:22:59.754Z,99240.34
2023-01-15T20:28:01.299Z,99237.41
2023-01-15T20:33:02.886Z,99239.56
2023-01-15T20:38:04.371Z,99225.78
2023-01-15T20:43:24.260Z,99222.72
2023-01-15T20:48:44.264Z,99220.19
2023-01-15T20:53:45.973Z,99220.84
2023-01-15T20:58:47.524Z,99222.50
2023-01-15T21:03:48.952Z,99215.69
2023-01-15T21:08:50.494Z,99213.09
2023-01-15T21:13:52.032Z,99208.97
2023-01-15T21:18:53.487Z,99217.91
2023-01-15T21:23:55.071Z,99224.81
2023-01-15T21:28:56.567Z,99211.00
2023-01-15T21:33:58.781Z,99216.81
2023-01-15T21:39:01.917Z,99218.19
2023-01-15T21:44:21.976Z,99216.59
2023-01-15T21:49:23.549Z,99222.84
2023-01-15T21:54:25.018Z,99214.94
2023-01-15T21:59:26.561Z,99224.56
2023-01-15T22:04:30.042Z,99211.94
2023-01-15T22:09:31.472Z,99203.41
2023-01-15T22:14:33.490Z,99199.31
2023-01-15T22:19:34.973Z,99196.75
2023-01-15T22:24:39.639Z,99186.50
2023-01-15T22:29:42.480Z,99176.88
2023-01-15T22:34:44.072Z,99174.50
2023-01-15T22:39:46.524Z,99172.38
2023-01-15T22:44:48.920Z,99161.88
2023-01-15T22:49:50.759Z,99152.47
2023-01-15T22:54:52.723Z,99154.72
2023-01-15T22:59:54.164Z,99155.28
2023-01-15T23:04:55.577Z,99149.06
2023-01-15T23:09:56.994Z,99149.25
2023-01-15T23:14:58.671Z,99155.72
2023-01-15T23:20:00.190Z,99154.94
2023-01-15T23:25:01.645Z,99156.88
2023-01-15T23:30:04.025Z,99146.38
2023-01-15T23:35:07.509Z,99141.38
2023-01-15T23:40:09.718Z,99139.66
2023-01-15T23:45:30.334Z,99135.22
2023-01-15T23:50:31.759Z,99134.72
2023-01-15T23:55:33.172Z,99125.31
